Time;durP1;ratioP1;P1;durP2;ratioP2;P2;SDS_P1;SDS_P2;PMS_P1;PMS_P2;Temp;Humidity;BMP_temperature;BMP_pressure;BME280_temperature;BME280_humidity;BME280_pressure;Samples;Min_cycle;Max_cycle;Signal;HPM_P1;HPM_P2
2024/01/14 00:00:08;;;;;;;42.00;20.95;;;;;;;-1.21;100.00;99957.48;1450494;89;21383;-77
2024/01/14 00:02:35;;;;;;;44.43;21.17;;;;;;;-1.22;100.00;99952.36;1378970;89;22079;-80
2024/01/14 00:05:01;;;;;;;35.23;18.13;;;;;;;-1.23;100.00;99957.19;1450948;90;22309;-76
2024/01/14 00:07:28;;;;;;;50.73;23.35;;;;;;;-1.27;100.00;99953.91;1457861;90;21969;-77
2024/01/14 00:09:55;;;;;;;42.58;20.95;;;;;;;-1.21;100.00;99954.03;1459158;89;21500;-77
2024/01/14 00:12:21;;;;;;;50.43;23.60;;;;;;;-1.21;100.00;99947.53;1449614;90;21383;-77
2024/01/14 00:14:47;;;;;;;36.80;20.07;;;;;;;-1.20;100.00;99950.53;1447680;89;22455;-77
2024/01/14 00:17:14;;;;;;;48.40;23.05;;;;;;;-1.21;100.00;99938.45;1454302;89;22136;-77
2024/01/14 00:19:40;;;;;;;43.83;21.50;;;;;;;-1.24;100.00;99943.34;1455375;89;21501;-77
2024/01/14 00:22:06;;;;;;;50.78;25.05;;;;;;;-1.26;100.00;99943.08;1456117;89;22016;-78
2024/01/14 00:24:33;;;;;;;45.78;21.17;;;;;;;-1.32;100.00;99949.88;1451951;90;21325;-78
2024/01/14 00:26:59;;;;;;;42.78;21.02;;;;;;;-1.37;100.00;99934.58;1450036;89;21605;-76
2024/01/14 00:29:26;;;;;;;49.73;24.67;;;;;;;-1.43;100.00;99940.94;1455519;88;21389;-77
2024/01/14 00:31:53;;;;;;;42.90;20.63;;;;;;;-1.42;100.00;99936.11;1453422;88;21420;-77
2024/01/14 00:34:19;;;;;;;44.90;23.57;;;;;;;-1.45;100.00;99937.58;1449617;90;22646;-77
2024/01/14 00:36:45;;;;;;;47.13;23.95;;;;;;;-1.47;100.00;99940.70;1449508;89;21376;-77
2024/01/14 00:39:11;;;;;;;41.63;23.67;;;;;;;-1.53;100.00;99941.05;1448384;90;21383;-77
2024/01/14 00:41:37;;;;;;;48.30;26.00;;;;;;;-1.56;100.00;99949.46;1459050;88;22048;-77
2024/01/14 00:44:04;;;;;;;48.23;26.10;;;;;;;-1.59;100.00;99945.27;1462431;88;21508;-77
2024/01/14 00:46:31;;;;;;;51.18;25.40;;;;;;;-1.61;100.00;99934.98;1453073;88;21508;-78
2024/01/14 00:48:58;;;;;;;51.40;25.05;;;;;;;-1.63;100.00;99939.87;1449801;88;21376;-77
2024/01/14 00:51:24;;;;;;;45.98;23.60;;;;;;;-1.67;100.00;99925.37;1451173;90;21427;-76
2024/01/14 00:53:50;;;;;;;52.08;25.48;;;;;;;-1.72;100.00;99923.51;1454581;90;21494;-77
2024/01/14 00:56:17;;;;;;;55.98;28.47;;;;;;;-1.75;100.00;99917.19;1461109;88;21391;-78
2024/01/14 00:58:43;;;;;;;53.48;26.50;;;;;;;-1.84;100.00;99906.84;1457685;90;21460;-77
2024/01/14 01:01:09;;;;;;;55.65;26.87;;;;;;;-1.85;100.00;99916.82;1444644;88;22248;-77
2024/01/14 01:03:36;;;;;;;48.55;23.83;;;;;;;-1.86;100.00;99905.61;1458555;90;21345;-78
2024/01/14 01:06:02;;;;;;;55.43;26.40;;;;;;;-1.90;100.00;99900.66;1458576;88;21368;-77
2024/01/14 01:08:28;;;;;;;59.98;28.20;;;;;;;-1.91;100.00;99904.18;1457387;88;21568;-77
2024/01/14 01:10:54;;;;;;;52.33;25.27;;;;;;;-1.92;100.00;99907.23;1445560;88;21434;-77
2024/01/14 01:13:20;;;;;;;60.75;31.23;;;;;;;-1.94;100.00;99898.69;1446074;90;22231;-77
2024/01/14 01:15:47;;;;;;;51.77;27.25;;;;;;;-1.93;100.00;99896.93;1452104;90;21502;-75
2024/01/14 01:18:13;;;;;;;54.58;28.20;;;;;;;-1.95;100.00;99897.03;1444327;90;21449;-75
2024/01/14 01:20:39;;;;;;;55.03;26.95;;;;;;;-1.99;100.00;99879.94;1449345;89;21390;-76
2024/01/14 01:23:05;;;;;;;53.50;27.62;;;;;;;-2.02;100.00;99878.80;1442018;90;22366;-76
2024/01/14 01:25:31;;;;;;;56.33;29.70;;;;;;;-2.07;100.00;99871.75;1459790;90;21615;-75
2024/01/14 01:27:57;;;;;;;46.67;25.97;;;;;;;-2.10;100.00;99868.86;1457647;88;21493;-76
2024/01/14 01:30:24;;;;;;;49.18;24.43;;;;;;;-2.13;100.00;99861.67;1454629;89;21694;-76
2024/01/14 01:32:50;;;;;;;57.03;28.00;;;;;;;-2.18;100.00;99854.63;1452890;90;21368;-75
2024/01/14 01:35:16;;;;;;;61.65;29.40;;;;;;;-2.19;100.00;99858.11;1450455;89;21369;-76
2024/01/14 01:37:42;;;;;;;52.08;27.65;;;;;;;-2.19;100.00;99864.59;1446376;90;21405;-76
2024/01/14 01:40:09;;;;;;;59.60;28.70;;;;;;;-2.22;100.00;99864.76;1449249;90;22314;-76
2024/01/14 01:42:36;;;;;;;55.75;29.52;;;;;;;-2.25;100.00;99861.03;1451614;90;21510;-76
2024/01/14 01:45:02;;;;;;;56.95;25.35;;;;;;;-2.27;100.00;99858.07;1451075;90;21391;-76
2024/01/14 01:47:31;;;;;;;62.43;28.77;;;;;;;-2.33;100.00;99858.39;1458160;89;21666;-76
2024/01/14 01:49:58;;;;;;;55.88;28.95;;;;;;;-2.31;100.00;99857.00;1455080;89;22241;-76
2024/01/14 01:52:25;;;;;;;52.30;27.30;;;;;;;-2.36;100.00;99852.51;1451794;89;21324;-76
2024/01/14 01:54:54;;;;;;;58.28;30.15;;;;;;;-2.33;100.00;99844.14;1447364;89;21375;-76
2024/01/14 01:57:23;;;;;;;60.65;29.52;;;;;;;-2.32;100.00;99841.91;1450781;90;21346;-76
2024/01/14 01:59:50;;;;;;;56.18;28.95;;;;;;;-2.32;100.00;99849.69;1449237;89;21536;-76
2024/01/14 02:02:17;;;;;;;51.77;29.63;;;;;;;-2.35;100.00;99839.95;1459439;90;21295;-75
2024/01/14 02:04:45;;;;;;;55.90;30.25;;;;;;;-2.37;100.00;99840.48;1377493;90;22257;-75
2024/01/14 02:07:12;;;;;;;56.90;29.25;;;;;;;-2.34;100.00;99842.91;1406874;90;21493;-75
2024/01/14 02:09:38;;;;;;;54.55;27.98;;;;;;;-2.32;100.00;99839.32;1441614;90;21568;-76
2024/01/14 02:12:05;;;;;;;48.90;26.80;;;;;;;-2.30;100.00;99838.80;1449937;89;22366;-76
2024/01/14 02:14:31;;;;;;;52.10;28.40;;;;;;;-2.27;100.00;99843.81;1438701;90;21442;-76
2024/01/14 02:16:57;;;;;;;51.53;29.27;;;;;;;-2.24;100.00;99836.34;1449183;89;21366;-76
2024/01/14 02:19:23;;;;;;;51.65;29.30;;;;;;;-2.22;100.00;99834.48;1418459;91;22339;-76
2024/01/14 02:22:01;;;;;;;54.08;28.40;;;;;;;-2.19;100.00;99837.38;1447876;89;21427;-76
2024/01/14 02:24:29;;;;;;;52.20;26.30;;;;;;;-2.20;100.00;99824.05;1451786;90;21472;-76
2024/01/14 02:26:57;;;;;;;54.67;29.18;;;;;;;-2.21;100.00;99824.97;1452532;89;21390;-76
2024/01/14 02:29:24;;;;;;;54.60;28.98;;;;;;;-2.19;100.00;99827.00;1457401;90;21556;-77
2024/01/14 02:31:50;;;;;;;55.60;27.85;;;;;;;-2.21;100.00;99825.80;1447936;89;21510;-76
2024/01/14 02:34:16;;;;;;;60.52;31.05;;;;;;;-2.20;100.00;99824.05;1449577;89;21347;-76
2024/01/14 02:36:43;;;;;;;53.13;27.65;;;;;;;-2.23;100.00;99821.61;1447126;90;22320;-76
2024/01/14 02:39:09;;;;;;;55.65;29.98;;;;;;;-2.28;100.00;99817.95;1451945;90;21354;-76
2024/01/14 02:41:36;;;;;;;58.73;29.30;;;;;;;-2.30;100.00;99805.09;1452160;90;21501;-76
2024/01/14 02:44:02;;;;;;;56.53;30.10;;;;;;;-2.32;100.00;99807.39;1449810;89;21376;-76
2024/01/14 02:46:29;;;;;;;54.55;30.17;;;;;;;-2.35;100.00;99807.55;1456665;89;21619;-76
2024/01/14 02:48:57;;;;;;;54.38;29.10;;;;;;;-2.39;100.00;99806.85;1461621;89;21398;-76
2024/01/14 02:51:23;;;;;;;56.98;29.57;;;;;;;-2.42;100.00;99801.83;1456141;89;21324;-75
2024/01/14 02:53:50;;;;;;;53.20;28.52;;;;;;;-2.42;100.00;99791.47;1453360;89;21538;-76
2024/01/14 02:56:16;;;;;;;51.37;28.10;;;;;;;-2.44;100.00;99793.32;1453484;90;21331;-76
2024/01/14 02:58:42;;;;;;;49.53;26.80;;;;;;;-2.41;100.00;99793.16;1460760;89;21582;-75
2024/01/14 03:01:10;;;;;;;58.98;31.68;;;;;;;-2.38;100.00;99802.06;1448245;90;22240;-76
2024/01/14 03:03:38;;;;;;;49.90;26.73;;;;;;;-2.37;100.00;99799.84;1450394;90;21544;-76
2024/01/14 03:06:05;;;;;;;56.65;28.80;;;;;;;-2.36;100.00;99792.90;1448346;88;22248;-75
2024/01/14 03:08:31;;;;;;;55.25;27.27;;;;;;;-2.33;100.00;99794.03;1456712;89;21405;-76
2024/01/14 03:10:57;;;;;;;51.60;27.65;;;;;;;-2.33;100.00;99791.00;1449994;90;21598;-76
2024/01/14 03:13:24;;;;;;;60.95;30.55;;;;;;;-2.32;100.00;99787.95;1456232;89;22336;-76
2024/01/14 03:15:50;;;;;;;54.50;29.32;;;;;;;-2.32;100.00;99782.30;1445740;89;22509;-76
2024/01/14 03:18:16;;;;;;;57.27;30.35;;;;;;;-2.32;100.00;99779.70;1448198;90;21310;-76
2024/01/14 03:20:43;;;;;;;56.55;29.48;;;;;;;-2.32;100.00;99774.98;1451305;89;22328;-76
2024/01/14 03:23:09;;;;;;;56.73;30.12;;;;;;;-2.32;100.00;99774.52;1456478;89;21523;-76
2024/01/14 03:25:35;;;;;;;55.70;29.65;;;;;;;-2.30;100.00;99771.40;1445854;90;21382;-76
2024/01/14 03:28:02;;;;;;;59.75;30.23;;;;;;;-2.33;100.00;99761.20;1458401;89;22336;-76
2024/01/14 03:30:28;;;;;;;60.15;32.15;;;;;;;-2.34;100.00;99762.56;1455614;89;21560;-76
2024/01/14 03:32:54;;;;;;;49.60;28.87;;;;;;;-2.35;100.00;99766.91;1451392;89;21287;-76
2024/01/14 03:35:20;;;;;;;64.25;31.50;;;;;;;-2.35;100.00;99756.55;1454883;89;22122;-75
2024/01/14 03:37:47;;;;;;;58.15;31.10;;;;;;;-2.34;100.00;99760.80;1462542;89;21487;-76
2024/01/14 03:40:13;;;;;;;59.80;29.23;;;;;;;-2.36;100.00;99749.70;1453337;89;21316;-76
2024/01/14 03:42:39;;;;;;;52.93;29.55;;;;;;;-2.37;100.00;99741.99;1452051;89;22337;-76
2024/01/14 03:45:06;;;;;;;63.90;30.25;;;;;;;-2.37;100.00;99736.34;1453396;89;21332;-76
2024/01/14 03:47:33;;;;;;;53.75;29.45;;;;;;;-2.39;100.00;99734.28;1452709;89;21545;-76
2024/01/14 03:49:59;;;;;;;60.05;31.57;;;;;;;-2.37;100.00;99731.63;1454154;88;21512;-76
2024/01/14 03:52:25;;;;;;;53.83;29.12;;;;;;;-2.42;100.00;99727.97;1454718;89;21360;-76
2024/01/14 03:54:52;;;;;;;56.95;29.12;;;;;;;-2.49;100.00;99737.01;1457188;88;21478;-76
2024/01/14 03:57:18;;;;;;;52.62;28.20;;;;;;;-2.51;100.00;99731.06;1455983;89;21449;-76
2024/01/14 03:59:44;;;;;;;58.15;29.45;;;;;;;-2.60;100.00;99739.33;1449791;89;22247;-77
2024/01/14 04:02:11;;;;;;;57.80;28.07;;;;;;;-2.61;100.00;99737.66;1460899;89;21419;-77
2024/01/14 04:04:37;;;;;;;54.30;29.25;;;;;;;-2.64;100.00;99735.23;1455556;88;21353;-77
2024/01/14 04:07:03;;;;;;;55.30;29.05;;;;;;;-2.66;100.00;99730.12;1449859;89;21449;-77
2024/01/14 04:09:30;;;;;;;55.40;28.65;;;;;;;-2.67;100.00;99723.75;1458149;89;22404;-77
2024/01/14 04:11:56;;;;;;;57.55;31.20;;;;;;;-2.70;100.00;99718.70;1452981;89;21435;-76
2024/01/14 04:14:22;;;;;;;56.85;29.63;;;;;;;-2.73;100.00;99719.26;1454675;89;21361;-77
2024/01/14 04:16:48;;;;;;;57.08;29.42;;;;;;;-2.74;100.00;99719.33;1446446;88;22182;-77
2024/01/14 04:19:14;;;;;;;54.03;29.35;;;;;;;-2.77;100.00;99722.91;1455543;89;21501;-76
2024/01/14 04:21:40;;;;;;;50.67;27.73;;;;;;;-2.76;100.00;99729.78;1442510;89;21493;-76
2024/01/14 04:24:08;;;;;;;55.20;32.00;;;;;;;-2.78;100.00;99724.30;1441249;89;21288;-76
2024/01/14 04:26:35;;;;;;;46.58;26.35;;;;;;;-2.79;100.00;99727.36;1459128;89;21738;-76
2024/01/14 04:29:01;;;;;;;57.03;30.23;;;;;;;-2.78;100.00;99719.95;1447578;89;21538;-77
2024/01/14 04:31:28;;;;;;;58.45;30.80;;;;;;;-2.81;100.00;99720.11;1452198;88;21534;-76
2024/01/14 04:33:56;;;;;;;54.45;29.35;;;;;;;-2.83;100.00;99718.05;1451802;89;22537;-77
2024/01/14 04:36:22;;;;;;;52.83;28.65;;;;;;;-2.84;100.00;99711.67;1444322;90;21598;-77
2024/01/14 04:38:48;;;;;;;60.40;30.32;;;;;;;-2.88;100.00;99718.75;1450628;88;21376;-76
2024/01/14 04:41:15;;;;;;;59.70;29.63;;;;;;;-2.89;100.00;99718.37;1457620;89;22336;-76
2024/01/14 04:43:41;;;;;;;50.78;28.00;;;;;;;-2.91;100.00;99712.89;1449468;89;21505;-76
2024/01/14 04:46:09;;;;;;;53.73;29.07;;;;;;;-2.90;100.00;99715.88;1459209;88;21383;-76
2024/01/14 04:48:35;;;;;;;55.65;30.12;;;;;;;-2.92;100.00;99714.66;1448069;89;22355;-76
2024/01/14 04:51:01;;;;;;;61.33;31.62;;;;;;;-2.93;100.00;99716.88;1448487;89;21412;-76
2024/01/14 04:53:27;;;;;;;53.13;29.07;;;;;;;-2.92;100.00;99717.24;1455604;89;21386;-75
2024/01/14 04:55:54;;;;;;;51.85;28.07;;;;;;;-2.91;100.00;99722.79;1457738;89;21554;-76
2024/01/14 04:58:20;;;;;;;58.15;29.42;;;;;;;-2.93;100.00;99714.28;1453241;89;21331;-76
2024/01/14 05:00:46;;;;;;;59.18;30.00;;;;;;;-2.95;100.00;99711.77;1451287;90;21376;-76
2024/01/14 05:03:13;;;;;;;60.63;29.30;;;;;;;-2.96;100.00;99713.16;1462589;89;21640;-76
2024/01/14 05:05:40;;;;;;;60.30;31.30;;;;;;;-2.97;100.00;99710.17;1470657;87;21376;-77
2024/01/14 05:08:06;;;;;;;56.50;29.10;;;;;;;-2.98;100.00;99709.80;1447767;88;21295;-77
2024/01/14 05:10:32;;;;;;;61.08;30.85;;;;;;;-2.98;100.00;99703.33;1449736;89;21508;-76
2024/01/14 05:12:58;;;;;;;65.23;30.83;;;;;;;-2.97;100.00;99708.88;1445870;90;21435;-78
2024/01/14 05:15:24;;;;;;;63.75;32.30;;;;;;;-2.97;100.00;99707.58;1465409;89;21456;-78
2024/01/14 05:17:50;;;;;;;56.45;31.10;;;;;;;-2.97;100.00;99716.64;1445254;89;21338;-78
2024/01/14 05:20:17;;;;;;;68.30;32.63;;;;;;;-2.98;100.00;99714.98;1448521;88;22268;-78
2024/01/14 05:22:43;;;;;;;61.85;32.88;;;;;;;-3.02;100.00;99716.89;1448053;90;21391;-79
2024/01/14 05:25:13;;;;;;;60.78;31.85;;;;;;;-3.01;100.00;99721.61;1449284;89;21387;-78
2024/01/14 05:27:39;;;;;;;66.20;33.13;;;;;;;-3.03;100.00;99710.48;1447715;87;21620;-79
2024/01/14 05:30:08;;;;;;;55.40;29.63;;;;;;;-3.03;100.00;99714.38;1446968;89;21442;-78
2024/01/14 05:32:35;;;;;;;64.42;32.33;;;;;;;-3.04;100.00;99716.59;1448635;90;21398;-79
2024/01/14 05:35:01;;;;;;;61.50;32.55;;;;;;;-3.02;100.00;99716.03;1447823;89;21324;-78
2024/01/14 05:37:27;;;;;;;60.38;31.85;;;;;;;-3.02;100.00;99725.95;1450812;90;22358;-78
2024/01/14 05:39:53;;;;;;;63.98;31.90;;;;;;;-3.02;100.00;99717.33;1456001;90;21406;-79
2024/01/14 05:42:19;;;;;;;56.92;28.07;;;;;;;-3.04;100.00;99712.24;1441202;90;21474;-78
2024/01/14 05:44:45;;;;;;;56.65;31.70;;;;;;;-3.04;100.00;99706.23;1449771;89;21410;-78
2024/01/14 05:47:11;;;;;;;62.62;32.90;;;;;;;-3.07;100.00;99704.64;1451279;89;22240;-79
2024/01/14 05:49:37;;;;;;;55.85;31.68;;;;;;;-3.08;100.00;99711.17;1453363;90;21360;-78
2024/01/14 05:52:04;;;;;;;64.22;32.05;;;;;;;-3.09;100.00;99696.56;1447953;88;21479;-78
2024/01/14 05:54:30;;;;;;;65.15;34.75;;;;;;;-3.10;100.00;99706.09;1454587;90;22168;-78
2024/01/14 05:56:57;;;;;;;50.35;27.50;;;;;;;-3.08;100.00;99708.59;1437190;90;21450;-77
2024/01/14 05:59:24;;;;;;;62.25;31.20;;;;;;;-3.10;100.00;99718.20;1445796;89;22313;-79
2024/01/14 06:01:50;;;;;;;60.08;31.10;;;;;;;-3.09;100.00;99717.28;1450743;90;21444;-78
2024/01/14 06:04:16;;;;;;;63.40;30.35;;;;;;;-3.10;100.00;99713.86;1456304;89;21346;-78
2024/01/14 06:06:44;;;;;;;52.75;30.12;;;;;;;-3.10;100.00;99711.27;1452857;89;21627;-79
2024/01/14 06:09:10;;;;;;;60.05;31.87;;;;;;;-3.10;100.00;99710.44;1457280;90;21434;-79
2024/01/14 06:11:39;;;;;;;64.62;33.10;;;;;;;-3.14;100.00;99708.44;1446444;90;21590;-78
2024/01/14 06:14:06;;;;;;;66.07;32.80;;;;;;;-3.13;100.00;99708.84;1449692;90;21928;-79
2024/01/14 06:16:32;;;;;;;70.72;34.90;;;;;;;-3.17;100.00;99710.72;1456311;89;21398;-77
2024/01/14 06:18:58;;;;;;;64.62;32.75;;;;;;;-3.17;100.00;99704.25;1441705;88;21603;-78
2024/01/14 06:21:24;;;;;;;69.65;35.28;;;;;;;-3.18;100.00;99707.77;1449981;90;21374;-78
2024/01/14 06:23:50;;;;;;;66.75;34.10;;;;;;;-3.20;100.00;99699.23;1450240;89;22262;-78
2024/01/14 06:26:17;;;;;;;63.45;32.70;;;;;;;-3.22;100.00;99703.67;1454317;89;21376;-78
2024/01/14 06:28:45;;;;;;;55.75;30.60;;;;;;;-3.25;100.00;99709.01;1450980;89;21441;-79
2024/01/14 06:31:11;;;;;;;66.22;32.78;;;;;;;-3.26;100.00;99708.61;1456947;90;21515;-78
2024/01/14 06:33:37;;;;;;;63.10;33.60;;;;;;;-3.28;100.00;99706.58;1445568;88;21438;-78
2024/01/14 06:36:07;;;;;;;65.87;30.92;;;;;;;-3.30;100.00;99700.64;1452171;89;21354;-79
2024/01/14 06:38:34;;;;;;;69.25;34.48;;;;;;;-3.31;100.00;99702.85;1447087;90;21375;-78
2024/01/14 06:41:01;;;;;;;60.10;33.40;;;;;;;-3.30;100.00;99709.69;1459297;90;21376;-79
2024/01/14 06:43:27;;;;;;;61.05;31.73;;;;;;;-3.28;100.00;99709.59;1445752;88;21581;-78
2024/01/14 06:45:54;;;;;;;61.63;32.38;;;;;;;-3.25;100.00;99725.83;1439795;90;21655;-78
2024/01/14 06:48:20;;;;;;;54.33;30.02;;;;;;;-3.25;100.00;99724.54;1452959;90;21375;-79
2024/01/14 06:50:48;;;;;;;62.58;33.92;;;;;;;-3.23;100.00;99727.03;1455949;90;21390;-77
2024/01/14 06:53:14;;;;;;;55.40;29.85;;;;;;;-3.22;100.00;99717.08;1450658;89;21531;-79
2024/01/14 06:55:40;;;;;;;54.75;29.15;;;;;;;-3.21;100.00;99723.92;1451521;89;21451;-78
2024/01/14 06:58:06;;;;;;;58.80;30.88;;;;;;;-3.20;100.00;99719.94;1451128;88;21398;-78
2024/01/14 07:00:33;;;;;;;77.40;33.78;;;;;;;-3.18;100.00;99713.41;1458907;90;22093;-78
2024/01/14 07:02:59;;;;;;;102.95;45.65;;;;;;;-3.18;100.00;99713.41;1450963;90;22336;-78
2024/01/14 07:05:25;;;;;;;75.08;36.98;;;;;;;-3.17;100.00;99712.02;1461433;90;21309;-78
2024/01/14 07:07:52;;;;;;;76.22;38.13;;;;;;;-3.15;100.00;99712.42;1448581;90;21346;-78
2024/01/14 07:10:18;;;;;;;69.45;33.75;;;;;;;-3.11;100.00;99710.04;1456816;89;21523;-78
2024/01/14 07:12:44;;;;;;;72.60;35.30;;;;;;;-3.11;100.00;99703.56;1443653;89;21428;-78
2024/01/14 07:15:10;;;;;;;57.93;30.70;;;;;;;-3.09;100.00;99701.75;1453696;88;22388;-79
2024/01/14 07:17:36;;;;;;;66.15;33.10;;;;;;;-3.07;100.00;99707.69;1450475;89;21580;-78
2024/01/14 07:20:03;;;;;;;63.20;32.53;;;;;;;-3.06;100.00;99700.29;1454623;89;21323;-79
2024/01/14 07:22:29;;;;;;;55.67;30.25;;;;;;;-3.04;100.00;99702.35;1458043;90;21361;-79
2024/01/14 07:24:55;;;;;;;59.67;31.40;;;;;;;-3.00;100.00;99703.85;1451581;90;22248;-78
2024/01/14 07:27:21;;;;;;;69.53;32.03;;;;;;;-2.98;100.00;99705.45;1454339;89;21581;-78
2024/01/14 07:29:48;;;;;;;63.52;31.55;;;;;;;-2.94;100.00;99708.71;1452050;89;21472;-78
2024/01/14 07:32:14;;;;;;;56.13;30.75;;;;;;;-2.96;100.00;99703.63;1450520;90;22448;-78
2024/01/14 07:34:41;;;;;;;59.67;30.17;;;;;;;-2.97;100.00;99690.75;1445937;89;21442;-79
2024/01/14 07:37:07;;;;;;;67.62;34.40;;;;;;;-2.95;100.00;99686.33;1461228;90;21288;-79
2024/01/14 07:39:33;;;;;;;67.50;31.70;;;;;;;-2.94;100.00;99689.29;1446603;89;21547;-78
2024/01/14 07:42:02;;;;;;;65.22;34.45;;;;;;;-2.92;100.00;99689.22;1448705;89;21302;-78
2024/01/14 07:44:28;;;;;;;58.28;31.90;;;;;;;-2.91;100.00;99685.24;1446146;90;22248;-79
2024/01/14 07:46:54;;;;;;;74.07;35.23;;;;;;;-2.91;100.00;99687.83;1432671;90;22484;-78
2024/01/14 07:49:20;;;;;;;75.28;39.27;;;;;;;-2.92;100.00;99681.45;1450104;89;21332;-79
2024/01/14 07:51:46;;;;;;;79.22;39.58;;;;;;;-2.94;100.00;99675.05;1452271;90;21302;-78
2024/01/14 07:54:12;;;;;;;67.30;35.05;;;;;;;-2.95;100.00;99674.22;1448161;89;21369;-79
2024/01/14 07:56:39;;;;;;;65.05;30.82;;;;;;;-2.95;100.00;99678.56;1451899;90;21375;-78
2024/01/14 07:59:05;;;;;;;57.33;29.40;;;;;;;-2.98;100.00;99675.67;1447098;90;21333;-79
2024/01/14 08:01:31;;;;;;;60.00;31.93;;;;;;;-3.00;100.00;99670.20;1459687;90;22402;-78
2024/01/14 08:03:57;;;;;;;54.95;29.50;;;;;;;-2.98;100.00;99676.14;1447593;89;21317;-78
2024/01/14 08:06:24;;;;;;;56.20;32.63;;;;;;;-2.96;100.00;99684.67;1449543;90;21980;-79
2024/01/14 08:08:50;;;;;;;58.08;28.80;;;;;;;-2.89;100.00;99692.48;1462000;88;21361;-78
2024/01/14 08:11:19;;;;;;;66.10;32.17;;;;;;;-2.86;100.00;99697.50;1439445;90;21564;-78
2024/01/14 08:13:44;;;;;;;55.65;30.97;;;;;;;-2.82;100.00;99709.39;1447596;89;21420;-78
2024/01/14 08:16:11;;;;;;;63.13;32.33;;;;;;;-2.74;100.00;99708.50;1460857;90;21375;-79
2024/01/14 08:18:37;;;;;;;60.33;31.42;;;;;;;-2.64;100.00;99708.04;1453976;90;22299;-78
2024/01/14 08:21:11;;;;;;;61.30;30.88;;;;;;;-2.60;100.00;99716.84;1444257;90;21368;-79
2024/01/14 08:23:38;;;;;;;56.70;29.42;;;;;;;-2.55;100.00;99720.03;1448062;89;21411;-78
2024/01/14 08:26:05;;;;;;;58.38;30.15;;;;;;;-2.48;100.00;99718.41;1448181;90;21472;-78
2024/01/14 08:28:35;;;;;;;57.23;29.50;;;;;;;-2.46;100.00;99721.76;1452289;89;22345;-78
2024/01/14 08:31:02;;;;;;;53.73;29.75;;;;;;;-2.44;100.00;99721.23;1450040;90;21522;-78
2024/01/14 08:33:29;;;;;;;60.65;30.77;;;;;;;-2.36;100.00;99721.19;1453812;88;21833;-78
2024/01/14 08:35:56;;;;;;;53.80;28.05;;;;;;;-2.32;100.00;99718.80;1449684;90;21501;-78
2024/01/14 08:38:23;;;;;;;53.08;28.75;;;;;;;-2.26;100.00;99708.55;1453939;89;21301;-77
2024/01/14 08:40:52;;;;;;;58.13;30.12;;;;;;;-2.31;100.00;99706.20;1445446;89;21618;-78
2024/01/14 08:43:18;;;;;;;57.67;28.47;;;;;;;-2.24;100.00;99701.54;1458068;90;22283;-78
2024/01/14 08:45:44;;;;;;;56.15;30.72;;;;;;;-2.18;100.00;99709.44;1454054;89;21435;-78
2024/01/14 08:48:13;;;;;;;51.73;26.42;;;;;;;-2.06;100.00;99720.42;1461119;90;21637;-79
2024/01/14 08:50:39;;;;;;;59.63;31.87;;;;;;;-1.95;100.00;99714.19;1449682;90;22300;-78
2024/01/14 08:53:05;;;;;;;54.83;27.93;;;;;;;-1.85;100.00;99715.32;1453510;90;21713;-78
2024/01/14 08:55:31;;;;;;;53.70;29.47;;;;;;;-1.65;100.00;99708.17;1441816;90;21390;-80
2024/01/14 08:57:57;;;;;;;49.53;27.27;;;;;;;-1.44;100.00;99715.17;1450637;88;21828;-79
2024/01/14 09:00:24;;;;;;;45.50;25.30;;;;;;;-1.25;100.00;99716.25;1454649;89;21567;-79
2024/01/14 09:02:50;;;;;;;55.53;29.90;;;;;;;-1.11;100.00;99707.19;1448301;88;21596;-80
2024/01/14 09:05:16;;;;;;;52.40;27.93;;;;;;;-0.95;100.00;99706.66;1453195;89;22469;-80
2024/01/14 09:07:43;;;;;;;50.90;27.23;;;;;;;-0.77;100.00;99707.77;1449940;90;21922;-79
2024/01/14 09:10:10;;;;;;;62.33;31.30;;;;;;;-0.63;100.00;99701.27;1450591;90;21492;-80
2024/01/14 09:12:36;;;;;;;56.33;28.43;;;;;;;-0.55;100.00;99704.20;1453544;90;21611;-80
2024/01/14 09:15:04;;;;;;;54.53;29.00;;;;;;;-0.49;100.00;99703.85;1451539;90;22417;-80
2024/01/14 09:17:31;;;;;;;64.00;36.47;;;;;;;-0.36;100.00;99713.01;1455214;90;21432;-80
2024/01/14 09:19:57;;;;;;;48.07;28.40;;;;;;;-0.31;100.00;99707.53;1454999;88;21729;-81
2024/01/14 09:22:23;;;;;;;69.97;27.40;;;;;;;-0.29;100.00;99703.05;1457353;90;22306;-81
2024/01/14 09:25:06;;;;;;;43.30;24.43;;;;;;;-0.21;100.00;99700.80;1453911;89;22610;-80
2024/01/14 09:27:34;;;;;;;46.00;25.10;;;;;;;-0.11;100.00;99696.70;1450236;90;21838;-80
2024/01/14 09:30:01;;;;;;;44.13;24.13;;;;;;;-0.03;100.00;99684.48;1452289;88;21798;-80
2024/01/14 09:32:27;;;;;;;40.40;22.53;;;;;;;-0.03;100.00;99684.05;1455940;90;21719;-80
2024/01/14 09:34:54;;;;;;;42.27;23.27;;;;;;;0.00;100.00;99685.62;1448749;89;22580;-79
2024/01/14 09:37:21;;;;;;;48.60;26.80;;;;;;;-0.06;100.00;99686.84;1449698;90;21610;-80
2024/01/14 09:39:47;;;;;;;48.00;24.87;;;;;;;-0.16;100.00;99676.65;1439451;90;21657;-81
2024/01/14 09:42:28;;;;;;;46.57;25.63;;;;;;;-0.17;100.00;99671.09;1453041;90;22639;-81
2024/01/14 09:45:00;;;;;;;40.95;24.20;;;;;;;-0.14;100.00;99660.48;1449363;89;21782;-81
2024/01/14 09:47:31;;;;;;;40.77;22.60;;;;;;;-0.07;100.00;99665.65;1450738;90;21501;-80
2024/01/14 09:49:59;;;;;;;39.85;23.02;;;;;;;0.22;100.00;99657.25;1447519;90;22688;-80
2024/01/14 09:52:27;;;;;;;37.60;21.93;;;;;;;0.82;98.75;99650.66;1453364;90;21419;-81
2024/01/14 09:54:54;;;;;;;43.27;25.27;;;;;;;1.27;89.99;99645.83;1452830;90;21825;-80
2024/01/14 09:59:42;;;;;;;35.13;21.23;;;;;;;2.09;79.08;99630.38;1495918;85;23455;-78
2024/01/14 10:02:10;;;;;;;34.03;20.87;;;;;;;2.34;77.99;99636.41;1473798;87;24004;-78
2024/01/14 10:04:42;;;;;;;38.23;22.23;;;;;;;2.58;76.29;99624.09;1470848;87;22396;-78
2024/01/14 10:07:10;;;;;;;35.30;20.17;;;;;;;2.84;77.04;99629.95;1554616;87;21620;-78
2024/01/14 10:09:43;;;;;;;36.37;22.30;;;;;;;3.01;73.89;99620.81;1374837;91;21406;-77
2024/01/14 10:12:10;;;;;;;34.40;21.50;;;;;;;3.08;71.85;99611.55;1553213;87;21347;-79
2024/01/14 10:14:37;;;;;;;35.80;22.60;;;;;;;3.20;72.01;99607.63;1401065;87;21590;-75
2024/01/14 10:17:04;;;;;;;43.03;24.00;;;;;;;3.34;71.60;99592.98;1555409;87;21273;-78
2024/01/14 10:19:31;;;;;;;37.53;23.70;;;;;;;3.13;70.71;99585.03;1434899;87;21522;-79
2024/01/14 10:21:57;;;;;;;40.63;22.70;;;;;;;2.97;71.95;99588.03;1475347;87;21421;-78
2024/01/14 10:24:24;;;;;;;48.07;28.30;;;;;;;2.84;71.32;99588.13;1476235;87;22343;-79
2024/01/14 10:26:54;;;;;;;39.07;23.27;;;;;;;2.93;72.75;99575.67;1469238;87;21435;-78
2024/01/14 10:29:22;;;;;;;158.45;83.62;;;;;;;3.25;70.02;99576.69;1399643;87;21568;-78
2024/01/14 10:31:48;;;;;;;95.23;52.50;;;;;;;3.45;70.52;99576.41;1394334;87;21340;-78
2024/01/14 10:34:18;;;;;;;108.47;50.93;;;;;;;3.23;68.12;99574.70;1378047;89;21354;-78
2024/01/14 10:36:46;;;;;;;84.40;41.50;;;;;;;2.66;70.56;99585.64;1525318;87;21295;-76
2024/01/14 10:39:12;;;;;;;39.67;23.70;;;;;;;2.23;71.71;99597.55;1394691;89;21532;-78
2024/01/14 10:41:42;;;;;;;35.97;21.60;;;;;;;2.16;72.58;99595.05;1398925;87;21354;-78
2024/01/14 10:44:09;;;;;;;40.10;21.53;;;;;;;2.40;73.95;99596.77;1391064;88;22863;-78
2024/01/14 10:46:38;;;;;;;40.37;22.83;;;;;;;2.58;72.18;99591.92;1389945;89;21516;-77
2024/01/14 10:49:07;;;;;;;40.10;22.93;;;;;;;2.47;72.01;99585.75;1380998;87;21302;-75
2024/01/14 10:51:42;;;;;;;35.17;20.60;;;;;;;2.20;73.73;99584.72;1482463;87;21501;-74
2024/01/14 10:54:26;;;;;;;37.27;21.17;;;;;;;1.96;74.51;99582.65;1467439;87;21376;-74
2024/01/14 10:57:07;;;;;;;42.70;23.00;;;;;;;1.64;75.84;99592.80;1476138;87;22162;-76
2024/01/14 10:59:36;;;;;;;56.48;27.32;;;;;;;1.52;76.86;99593.22;1458787;88;23028;-79
2024/01/14 11:02:07;;;;;;;43.73;24.83;;;;;;;1.34;78.21;99589.69;1471602;88;21575;-78
2024/01/14 11:04:33;;;;;;;;;;;;;;;1.25;79.02;99591.65;1452991;88;23358;-80
2024/01/14 11:07:00;;;;;;;44.70;23.70;;;;;;;1.10;79.44;99584.45;1470199;88;21164;-78
2024/01/14 11:09:26;;;;;;;119.70;52.30;;;;;;;0.92;80.26;99580.98;1473876;88;22828;-79
2024/01/14 11:11:58;;;;;;;54.30;27.67;;;;;;;0.73;81.32;99587.47;1469531;88;22119;-79